createdAt,value
2023-04-15T00:00:02.379Z,85.40
2023-04-15T00:01:03.383Z,85.05
2023-04-15T00:02:02.463Z,83.60
2023-04-15T00:03:02.611Z,81.63
2023-04-15T00:04:02.454Z,80.52
2023-04-15T00:05:02.381Z,78.91
2023-04-15T00:06:02.489Z,78.10
2023-04-15T00:07:02.317Z,77.51
2023-04-15T00:08:02.312Z,78.17
2023-04-15T00:09:02.563Z,78.32
2023-04-15T00:10:02.348Z,78.25
2023-04-15T00:11:02.293Z,78.10
2023-04-15T00:12:02.274Z,77.95
2023-04-15T00:13:02.283Z,78.54
2023-04-15T00:14:02.343Z,78.76
2023-04-15T00:15:02.292Z,79.06
2023-04-15T00:16:02.446Z,79.37
2023-04-15T00:17:02.322Z,80.75
2023-04-15T00:18:02.321Z,82.19
2023-04-15T00:19:02.434Z,85.05
2023-04-15T00:20:02.224Z,88.40
2023-04-15T00:21:02.264Z,91.31
2023-04-15T00:22:02.246Z,94.53
2023-04-15T00:23:02.219Z,94.35
2023-04-15T00:24:02.182Z,93.82
2023-04-15T00:25:02.171Z,93.93
2023-04-15T00:26:02.245Z,95.84
2023-04-15T00:27:02.175Z,94.85
2023-04-15T00:28:02.199Z,95.29
2023-04-15T00:29:02.365Z,94.85
2023-04-15T00:30:02.148Z,94.21
2023-04-15T00:31:02.205Z,92.74
2023-04-15T00:32:02.100Z,91.61
2023-04-15T00:33:02.113Z,89.93
2023-04-15T00:34:02.099Z,92.32
2023-04-15T00:35:02.066Z,94.74
2023-04-15T00:36:02.099Z,95.22
2023-04-15T00:37:02.071Z,95.60
2023-04-15T00:38:02.005Z,94.57
2023-04-15T00:39:02.246Z,94.74
2023-04-15T00:40:02.003Z,92.63
2023-04-15T00:41:02.033Z,90.51
2023-04-15T00:42:02.004Z,88.68
2023-04-15T00:43:02.005Z,86.11
2023-04-15T00:44:02.011Z,84.88
2023-04-15T00:45:01.962Z,84.36
2023-04-15T00:46:01.934Z,84.53
2023-04-15T00:47:01.953Z,83.60
2023-04-15T00:48:01.974Z,82.93
2023-04-15T00:49:02.192Z,82.03
2023-04-15T00:50:01.946Z,82.60
2023-04-15T00:51:01.947Z,83.43
2023-04-15T00:52:01.876Z,85.22
2023-04-15T00:53:01.895Z,88.02
2023-04-15T00:54:02.006Z,90.71
2023-04-15T00:55:01.958Z,93.57
2023-04-15T00:56:01.856Z,95.29
2023-04-15T00:57:01.935Z,95.62
2023-04-15T00:58:01.960Z,94.30
2023-04-15T00:59:02.012Z,94.89
2023-04-15T01:00:01.787Z,96.49
2023-04-15T01:01:01.836Z,96.49
2023-04-15T01:02:01.928Z,98.37
2023-04-15T01:03:01.932Z,100.76
2023-04-15T01:04:01.855Z,102.56
2023-04-15T01:05:01.831Z,105.49
2023-04-15T01:06:03.946Z,107.54
2023-04-15T01:07:01.731Z,108.59
2023-04-15T01:08:01.736Z,109.52
2023-04-15T01:09:02.055Z,109.16
2023-04-15T01:10:01.701Z,108.24
2023-04-15T01:11:01.679Z,107.81
2023-04-15T01:12:01.759Z,107.47
2023-04-15T01:13:01.680Z,106.50
2023-04-15T01:14:01.656Z,104.49
2023-04-15T01:15:01.711Z,103.26
2023-04-15T01:16:01.667Z,101.19
2023-04-15T01:17:01.650Z,99.31
2023-04-15T01:18:01.685Z,97.51
2023-04-15T01:19:01.887Z,96.04
2023-04-15T01:20:01.750Z,93.87
2023-04-15T01:21:01.677Z,94.10
2023-04-15T01:22:01.591Z,92.74
2023-04-15T01:23:01.566Z,91.31
2023-04-15T01:24:01.598Z,90.51
2023-04-15T01:25:01.551Z,88.87
2023-04-15T01:26:01.588Z,86.74
2023-04-15T01:27:01.559Z,84.44
2023-04-15T01:28:01.570Z,82.35
2023-04-15T01:29:01.636Z,80.91
2023-04-15T01:30:01.524Z,80.05
2023-04-15T01:31:01.548Z,78.84
2023-04-15T01:32:01.478Z,77.08
2023-04-15T01:33:01.487Z,76.17
2023-04-15T01:34:01.494Z,75.00
2023-04-15T01:35:01.476Z,74.19
2023-04-15T01:36:01.444Z,72.70
2023-04-15T01:37:01.455Z,71.51
2023-04-15T01:38:01.433Z,70.13
2023-04-15T01:39:01.633Z,70.54
2023-04-15T01:40:01.435Z,71.39
2023-04-15T01:41:01.413Z,73.28
2023-04-15T01:42:01.451Z,75.61
2023-04-15T01:43:01.376Z,77.73
2023-04-15T01:44:01.378Z,79.98
2023-04-15T01:45:01.394Z,82.11
2023-04-15T01:46:01.389Z,85.05
2023-04-15T01:47:01.416Z,86.38
2023-04-15T01:48:01.357Z,88.02
2023-04-15T01:49:01.652Z,89.83
2023-04-15T01:50:01.395Z,91.11
2023-04-15T01:51:01.378Z,92.63
2023-04-15T01:52:01.294Z,93.05
2023-04-15T01:53:01.293Z,93.47
2023-04-15T01:54:01.302Z,94.31
2023-04-15T01:55:01.277Z,93.99
2023-04-15T01:56:01.264Z,92.84
2023-04-15T01:57:01.228Z,91.51
2023-04-15T01:58:01.254Z,92.43
2023-04-15T01:59:01.516Z,91.51
2023-04-15T02:00:01.278Z,91.01
2023-04-15T02:01:01.256Z,91.61
2023-04-15T02:02:01.284Z,91.71
2023-04-15T02:03:01.260Z,93.68
2023-04-15T02:04:01.265Z,93.61
2023-04-15T02:05:01.166Z,95.88
2023-04-15T02:06:01.238Z,98.08
2023-04-15T02:07:01.128Z,101.25
2023-04-15T02:08:01.125Z,106.91
2023-04-15T02:09:01.357Z,112.86
2023-04-15T02:10:01.125Z,120.04
2023-04-15T02:11:01.140Z,126.43
2023-04-15T02:12:01.111Z,134.51
2023-04-15T02:13:01.085Z,139.59
2023-04-15T02:14:01.095Z,145.96
2023-04-15T02:15:01.087Z,150.45
2023-04-15T02:16:01.070Z,152.10
2023-04-15T02:17:01.049Z,155.37
2023-04-15T02:18:01.148Z,158.79
2023-04-15T02:19:01.248Z,160.32
2023-04-15T02:20:01.050Z,162.20
2023-04-15T02:21:00.999Z,166.08
2023-04-15T02:22:01.013Z,166.92
2023-04-15T02:23:00.996Z,165.92
2023-04-15T02:24:01.002Z,162.83
2023-04-15T02:25:00.963Z,161.41
2023-04-15T02:26:00.950Z,159.40
2023-04-15T02:27:00.948Z,157.88
2023-04-15T02:28:00.945Z,155.96
2023-04-15T02:29:01.217Z,154.36
2023-04-15T02:30:00.920Z,152.10
2023-04-15T02:31:00.954Z,149.77
2023-04-15T02:32:01.053Z,151.14
2023-04-15T02:33:00.974Z,151.55
2023-04-15T02:34:00.899Z,152.66
2023-04-15T02:35:00.903Z,152.80
2023-04-15T02:36:00.921Z,152.80
2023-04-15T02:37:00.837Z,149.77
2023-04-15T02:38:00.868Z,145.32
2023-04-15T02:39:01.075Z,143.44
2023-04-15T02:40:00.843Z,142.21
2023-04-15T02:41:00.801Z,142.09
2023-04-15T02:42:00.820Z,141.13
2023-04-15T02:43:00.817Z,139.35
2023-04-15T02:44:00.833Z,138.31
2023-04-15T02:45:00.771Z,136.83
2023-04-15T02:46:00.880Z,136.83
2023-04-15T02:47:00.751Z,136.38
2023-04-15T02:48:00.790Z,136.27
2023-04-15T02:49:00.900Z,135.05
2023-04-15T02:50:00.741Z,132.89
2023-04-15T02:51:00.753Z,131.84
2023-04-15T02:52:00.721Z,128.68
2023-04-15T02:53:00.704Z,125.57
2023-04-15T02:54:00.697Z,122.42
2023-04-15T02:55:00.685Z,119.35
2023-04-15T02:56:00.672Z,117.82
2023-04-15T02:57:00.701Z,117.57
2023-04-15T02:58:00.761Z,116.67
2023-04-15T02:59:00.901Z,116.10
2023-04-15T03:00:00.616Z,115.37
2023-04-15T03:01:00.643Z,115.69
2023-04-15T03:02:00.758Z,114.10
2023-04-15T03:03:00.773Z,113.64
2023-04-15T03:04:00.768Z,110.68
2023-04-15T03:05:00.555Z,107.74
2023-04-15T03:06:00.651Z,105.96
2023-04-15T03:07:00.560Z,103.52
2023-04-15T03:08:00.519Z,102.31
2023-04-15T03:09:00.742Z,99.02
2023-04-15T03:10:00.575Z,98.02
2023-04-15T03:11:00.576Z,97.00
2023-04-15T03:12:00.489Z,97.68
2023-04-15T03:13:00.506Z,97.39
2023-04-15T03:14:00.520Z,96.60
2023-04-15T03:15:00.515Z,95.38
2023-04-15T03:16:00.477Z,95.95
2023-04-15T03:17:00.455Z,94.85
2023-04-15T03:18:00.504Z,93.89
2023-04-15T03:19:00.612Z,93.15
2023-04-15T03:20:00.460Z,92.12
2023-04-15T03:21:00.414Z,92.53
2023-04-15T03:22:00.406Z,92.32
2023-04-15T03:23:00.459Z,93.57
2023-04-15T03:24:00.403Z,94.31
2023-04-15T03:25:00.396Z,93.82
2023-04-15T03:26:00.384Z,94.03
2023-04-15T03:27:00.343Z,96.66
2023-04-15T03:28:00.335Z,97.11
2023-04-15T03:29:00.591Z,99.19
2023-04-15T03:30:00.318Z,100.03
2023-04-15T03:31:00.563Z,99.97
2023-04-15T03:32:00.311Z,100.27
2023-04-15T03:33:00.363Z,100.51
2023-04-15T03:34:00.381Z,99.97
2023-04-15T03:35:00.257Z,98.43
2023-04-15T03:36:00.292Z,95.93
2023-04-15T03:37:00.268Z,93.66
2023-04-15T03:38:00.283Z,93.78
2023-04-15T03:39:00.509Z,89.93
2023-04-15T03:40:00.215Z,87.28
2023-04-15T03:41:00.306Z,84.96
2023-04-15T03:42:00.223Z,82.76
2023-04-15T03:43:00.188Z,80.36
2023-04-15T03:44:00.221Z,77.95
2023-04-15T03:45:00.213Z,77.51
2023-04-15T03:46:01.847Z,77.30
2023-04-15T03:47:00.160Z,76.87
2023-04-15T03:48:11.389Z,76.66
2023-04-15T03:49:00.526Z,76.10
2023-04-15T03:50:00.167Z,75.27
2023-04-15T03:51:00.175Z,74.79
2023-04-15T03:52:00.146Z,73.41
2023-04-15T03:53:00.118Z,73.93
2023-04-15T03:54:00.190Z,73.67
2023-04-15T03:55:00.139Z,75.27
2023-04-15T03:56:00.135Z,76.24
2023-04-15T03:57:00.037Z,77.08
2023-04-15T03:58:00.061Z,77.66
2023-04-15T03:59:00.390Z,78.32
2023-04-15T04:00:00.057Z,78.91
2023-04-15T04:00:59.964Z,79.21
2023-04-15T04:02:00.130Z,78.99
2023-04-15T04:03:00.105Z,78.54
2023-04-15T04:04:00.078Z,79.37
2023-04-15T04:04:59.929Z,78.99
2023-04-15T04:05:59.918Z,78.25
2023-04-15T04:06:59.930Z,76.87
2023-04-15T04:07:59.890Z,74.59
2023-04-15T04:09:00.095Z,71.57
2023-04-15T04:09:59.890Z,68.90
2023-04-15T04:10:59.871Z,66.64
2023-04-15T04:11:59.867Z,64.77
2023-04-15T04:12:59.879Z,62.67
2023-04-15T04:13:59.864Z,61.97
2023-04-15T04:14:59.825Z,60.44
2023-04-15T04:15:59.892Z,60.18
2023-04-15T04:16:59.843Z,60.09
2023-04-15T04:17:59.834Z,59.83
2023-04-15T04:18:59.879Z,59.53
2023-04-15T04:19:59.858Z,60.44
2023-04-15T04:20:59.793Z,61.19
2023-04-15T04:21:59.774Z,63.10
2023-04-15T04:22:59.770Z,65.49
2023-04-15T04:23:59.759Z,68.06
2023-04-15T04:24:59.742Z,71.70
2023-04-15T04:25:59.717Z,75.20
2023-04-15T04:26:59.702Z,79.37
2023-04-15T04:27:59.703Z,85.66
2023-04-15T04:28:59.883Z,92.32
2023-04-15T04:29:59.756Z,98.37
2023-04-15T04:30:59.694Z,104.62
2023-04-15T04:31:59.692Z,111.88
2023-04-15T04:32:59.713Z,117.66
2023-04-15T04:33:59.675Z,119.86
2023-04-15T04:34:59.624Z,119.00
2023-04-15T04:35:59.643Z,117.82
2023-04-15T04:36:59.611Z,113.33
2023-04-15T04:37:59.590Z,107.67
2023-04-15T04:38:59.896Z,101.62
2023-04-15T04:39:59.602Z,95.27
2023-04-15T04:40:59.579Z,93.15
2023-04-15T04:41:59.552Z,88.77
2023-04-15T04:42:59.581Z,85.40
2023-04-15T04:43:59.600Z,83.10
2023-04-15T04:44:59.540Z,81.71
2023-04-15T04:45:59.573Z,81.55
2023-04-15T04:46:59.546Z,82.52
2023-04-15T04:47:59.609Z,83.93
2023-04-15T04:48:59.534Z,85.75
2023-04-15T04:49:59.509Z,86.38
2023-04-15T04:50:59.492Z,87.56
2023-04-15T04:51:59.464Z,88.87
2023-04-15T04:52:59.469Z,88.77
2023-04-15T04:54:00.072Z,89.44
2023-04-15T04:54:59.426Z,89.73
2023-04-15T04:55:59.471Z,92.02
2023-04-15T04:56:59.468Z,94.64
2023-04-15T04:57:59.405Z,94.78
2023-04-15T04:58:59.603Z,99.14
2023-04-15T04:59:59.394Z,102.50
2023-04-15T05:00:59.507Z,108.80
2023-04-15T05:01:59.425Z,113.95
2023-04-15T05:02:59.537Z,118.92
2023-04-15T05:03:59.427Z,122.24
2023-04-15T05:04:59.333Z,127.20
2023-04-15T05:05:59.319Z,132.57
2023-04-15T05:06:59.336Z,136.72
2023-04-15T05:07:59.362Z,138.31
2023-04-15T05:08:59.680Z,137.28
2023-04-15T05:09:59.317Z,134.07
2023-04-15T05:10:59.326Z,128.88
2023-04-15T05:11:59.261Z,123.06
2023-04-15T05:12:59.251Z,117.16
2023-04-15T05:13:59.241Z,110.25
2023-04-15T05:14:59.256Z,104.17
2023-04-15T05:15:59.338Z,100.88
2023-04-15T05:16:59.226Z,98.08
2023-04-15T05:17:59.322Z,95.71
2023-04-15T05:18:59.421Z,94.73
2023-04-15T05:19:59.229Z,95.84
2023-04-15T05:20:59.201Z,94.64
2023-04-15T05:21:59.208Z,93.57
2023-04-15T05:22:59.165Z,93.26
2023-04-15T05:23:59.175Z,93.68
2023-04-15T05:24:59.152Z,95.95
2023-04-15T05:25:59.245Z,96.04
2023-04-15T05:26:59.145Z,102.06
2023-04-15T05:27:59.097Z,110.03
2023-04-15T05:28:59.251Z,120.21
2023-04-15T05:29:59.126Z,131.53
2023-04-15T05:30:59.186Z,142.34
2023-04-15T05:31:59.086Z,154.08
2023-04-15T05:32:59.162Z,164.44
2023-04-15T05:33:59.084Z,174.63
2023-04-15T05:34:59.094Z,181.69
2023-04-15T05:35:59.056Z,189.75
2023-04-15T05:36:59.070Z,194.15
2023-04-15T05:37:59.037Z,198.75
2023-04-15T05:38:59.160Z,204.21
2023-04-15T05:39:58.995Z,211.48
2023-04-15T05:40:59.032Z,216.24
2023-04-15T05:41:58.973Z,222.72
2023-04-15T05:42:58.959Z,232.54
2023-04-15T05:43:58.992Z,241.48
2023-04-15T05:44:58.982Z,247.88
2023-04-15T05:45:58.989Z,253.85
2023-04-15T05:46:58.915Z,261.99
2023-04-15T05:47:58.992Z,264.96
2023-04-15T05:48:58.948Z,270.44
2023-04-15T05:49:58.896Z,273.61
2023-04-15T05:50:58.918Z,278.27
2023-04-15T05:51:58.870Z,278.75
2023-04-15T05:52:58.878Z,273.84
2023-04-15T05:53:58.897Z,277.09
2023-04-15T05:54:58.865Z,290.64
2023-04-15T05:55:58.919Z,298.34
2023-04-15T05:56:58.834Z,303.88
2023-04-15T05:57:58.836Z,309.64
2023-04-15T05:58:58.929Z,316.84
2023-04-15T05:59:58.787Z,323.75
2023-04-15T06:00:58.823Z,328.30
2023-04-15T06:01:58.773Z,338.15
2023-04-15T06:02:58.866Z,351.60
2023-04-15T06:03:58.863Z,355.81
2023-04-15T06:04:58.845Z,357.37
2023-04-15T06:05:58.734Z,357.37
2023-04-15T06:06:58.763Z,343.48
2023-04-15T06:07:58.726Z,327.31
2023-04-15T06:08:58.697Z,303.04
2023-04-15T06:09:58.728Z,276.39
2023-04-15T06:10:58.733Z,246.39
2023-04-15T06:11:58.704Z,213.69
2023-04-15T06:12:58.688Z,196.96
2023-04-15T06:13:58.662Z,184.92
2023-04-15T06:15:00.103Z,170.69
2023-04-15T06:15:58.657Z,159.40
2023-04-15T06:16:58.656Z,149.51
2023-04-15T06:17:58.682Z,141.85
2023-04-15T06:18:58.716Z,136.83
2023-04-15T06:19:58.590Z,136.49
2023-04-15T06:20:58.612Z,138.20
2023-04-15T06:21:58.586Z,141.61
2023-04-15T06:22:58.849Z,150.32
2023-04-15T06:23:58.568Z,161.41
2023-04-15T06:24:58.563Z,172.46
2023-04-15T06:25:58.552Z,184.11
2023-04-15T06:26:58.565Z,193.92
2023-04-15T06:27:58.531Z,201.07
2023-04-15T06:28:58.704Z,208.91
2023-04-15T06:29:58.499Z,211.07
2023-04-15T06:30:58.488Z,218.55
2023-04-15T06:31:58.558Z,225.33
2023-04-15T06:32:58.499Z,227.21
2023-04-15T06:33:58.466Z,225.02
2023-04-15T06:34:58.479Z,224.71
2023-04-15T06:35:58.487Z,225.33
2023-04-15T06:36:58.435Z,226.27
2023-04-15T06:37:58.433Z,224.09
2023-04-15T06:38:58.415Z,225.95
2023-04-15T06:39:58.406Z,229.60
2023-04-15T06:40:58.405Z,233.21
2023-04-15T06:41:58.418Z,232.88
2023-04-15T06:42:58.384Z,227.05
2023-04-15T06:43:58.366Z,216.09
2023-04-15T06:44:58.346Z,210.12
2023-04-15T06:45:58.427Z,209.45
2023-04-15T06:46:58.338Z,212.44
2023-04-15T06:47:58.371Z,210.66
2023-04-15T06:48:58.315Z,222.12
2023-04-15T06:49:58.306Z,232.38
2023-04-15T06:50:58.334Z,245.10
2023-04-15T06:51:58.318Z,258.06
2023-04-15T06:52:58.278Z,272.70
2023-04-15T06:53:58.310Z,288.85
2023-04-15T06:54:58.306Z,295.90
2023-04-15T06:55:58.242Z,307.31
2023-04-15T06:56:58.262Z,319.32
2023-04-15T06:57:58.271Z,333.66
2023-04-15T06:58:58.220Z,339.90
2023-04-15T06:59:58.189Z,339.90
2023-04-15T07:00:58.232Z,364.95
2023-04-15T07:01:58.274Z,397.33
2023-04-15T07:02:58.215Z,410.34
2023-04-15T07:03:58.154Z,410.34
2023-04-15T07:04:58.179Z,378.91
2023-04-15T07:05:58.131Z,341.32
2023-04-15T07:06:58.133Z,318.08
2023-04-15T07:07:58.115Z,306.16
2023-04-15T07:08:58.097Z,307.31
2023-04-15T07:09:58.125Z,306.16
2023-04-15T07:10:58.069Z,311.11
2023-04-15T07:11:58.072Z,324.71
2023-04-15T07:12:58.121Z,332.64
2023-04-15T07:13:58.051Z,355.43
2023-04-15T07:14:58.038Z,360.13
2023-04-15T07:15:58.031Z,369.91
2023-04-15T07:16:58.072Z,372.86
2023-04-15T07:17:58.078Z,384.01
2023-04-15T07:18:57.991Z,401.41
2023-04-15T07:19:57.986Z,434.21
2023-04-15T07:20:57.978Z,449.18
2023-04-15T07:21:57.964Z,450.70
2023-04-15T07:22:57.946Z,474.19
2023-04-15T07:23:57.983Z,478.97
2023-04-15T07:24:57.941Z,478.97
2023-04-15T07:25:57.922Z,472.84
2023-04-15T07:26:59.414Z,476.57
2023-04-15T07:27:57.896Z,477.94
2023-04-15T07:28:57.915Z,482.45
2023-04-15T07:29:57.902Z,460.07
2023-04-15T07:30:57.896Z,440.25
2023-04-15T07:31:57.870Z,425.04
2023-04-15T07:32:57.895Z,415.99
2023-04-15T07:33:57.890Z,410.59
2023-04-15T07:34:57.858Z,438.51
2023-04-15T07:35:57.812Z,480.70
2023-04-15T07:36:57.815Z,534.46
2023-04-15T07:37:57.809Z,592.10
2023-04-15T07:38:57.818Z,647.50
2023-04-15T07:39:57.778Z,682.07
2023-04-15T07:40:57.840Z,678.59
2023-04-15T07:41:57.798Z,682.77
2023-04-15T07:42:57.749Z,669.02
2023-04-15T07:43:57.750Z,677.20
2023-04-15T07:44:57.727Z,694.91
2023-04-15T07:45:57.823Z,704.49
2023-04-15T07:46:57.708Z,750.56
2023-04-15T07:47:57.713Z,762.61
2023-04-15T07:48:57.738Z,740.62
2023-04-15T07:49:57.687Z,754.40
2023-04-15T07:50:57.665Z,776.41
2023-04-15T07:51:57.674Z,769.67
2023-04-15T07:52:57.668Z,791.20
2023-04-15T07:53:57.628Z,807.53
2023-04-15T07:54:57.644Z,806.55
2023-04-15T07:55:57.640Z,813.46
2023-04-15T07:56:57.603Z,813.46
2023-04-15T07:57:57.614Z,854.76
2023-04-15T07:58:57.624Z,841.24
2023-04-15T07:59:57.578Z,850.93
2023-04-15T08:00:57.577Z,835.43
2023-04-15T08:01:57.621Z,835.95
2023-04-15T08:02:57.726Z,892.02
2023-04-15T08:03:57.634Z,912.83
2023-04-15T08:04:57.588Z,926.18
2023-04-15T08:05:57.508Z,943.93
2023-04-15T08:06:57.506Z,932.68
2023-04-15T08:07:57.508Z,922.97
2023-04-15T08:08:57.625Z,930.72
2023-04-15T08:09:57.547Z,932.03
2023-04-15T08:10:57.485Z,933.99
2023-04-15T08:11:57.454Z,922.97
2023-04-15T08:12:57.440Z,928.77
2023-04-15T08:13:57.442Z,937.94
2023-04-15T08:14:57.432Z,915.98
2023-04-15T08:15:57.497Z,930.72
2023-04-15T08:16:57.477Z,963.77
2023-04-15T08:17:57.429Z,988.11
2023-04-15T08:18:57.420Z,1040.69
2023-04-15T08:19:57.681Z,1060.61
2023-04-15T08:20:57.352Z,1052.21
2023-04-15T08:21:57.434Z,1048.07
2023-04-15T08:22:57.360Z,1048.07
2023-04-15T08:23:57.365Z,1015.27
2023-04-15T08:24:57.309Z,1059.76
2023-04-15T08:25:57.324Z,1099.17
2023-04-15T08:26:57.295Z,1150.52
2023-04-15T08:27:57.395Z,1166.67
2023-04-15T08:28:57.426Z,1315.53
2023-04-15T08:29:57.260Z,1506.23
2023-04-15T08:30:57.268Z,1601.44
2023-04-15T08:31:57.370Z,1838.29
2023-04-15T08:32:57.304Z,2083.01
2023-04-15T08:33:57.250Z,2157.34
2023-04-15T08:34:57.216Z,2187.50
2023-04-15T08:35:57.191Z,2319.09
2023-04-15T08:36:57.185Z,2398.56
2023-04-15T08:37:57.203Z,2449.35
2023-04-15T08:38:57.207Z,2528.52
2023-04-15T08:39:57.151Z,2488.31
2023-04-15T08:40:57.150Z,2567.57
2023-04-15T08:41:57.167Z,2618.11
2023-04-15T08:42:57.129Z,2628.46
2023-04-15T08:43:57.114Z,2600.20
2023-04-15T08:44:57.108Z,2615.54
2023-04-15T08:45:57.088Z,2597.66
2023-04-15T08:46:57.165Z,2652.04
2023-04-15T08:47:57.137Z,2644.14
2023-04-15T08:48:57.069Z,2736.62
2023-04-15T08:49:57.075Z,2814.81
2023-04-15T08:50:57.048Z,2881.91
2023-04-15T08:51:57.036Z,3000.56
2023-04-15T08:52:57.031Z,3199.04
2023-04-15T08:53:57.028Z,3234.04
2023-04-15T08:54:57.008Z,3125.73
2023-04-15T08:55:56.995Z,3000.56
2023-04-15T08:56:56.999Z,3125.73
2023-04-15T08:57:56.987Z,3312.58
2023-04-15T08:58:57.033Z,3549.03
2023-04-15T08:59:56.952Z,3582.49
2023-04-15T09:00:56.962Z,3663.91
2023-04-15T09:01:56.974Z,3720.28
2023-04-15T09:02:56.986Z,3888.89
2023-04-15T09:03:56.964Z,3979.06
2023-04-15T09:04:56.913Z,4195.58
2023-04-15T09:05:56.933Z,4425.96
2023-04-15T09:06:56.879Z,4414.94
2023-04-15T09:07:56.889Z,4481.89
2023-04-15T09:08:56.875Z,4433.33
2023-04-15T09:09:56.906Z,4470.59
2023-04-15T09:10:56.835Z,4249.20
2023-04-15T09:11:56.837Z,4300.73
2023-04-15T09:12:56.812Z,4283.41
2023-04-15T09:13:56.815Z,4245.81
2023-04-15T09:14:56.795Z,4481.89
2023-04-15T09:15:56.802Z,4547.01
2023-04-15T09:16:56.894Z,4389.44
2023-04-15T09:17:56.834Z,4493.24
2023-04-15T09:18:56.764Z,4594.13
2023-04-15T09:19:56.769Z,4788.48
2023-04-15T09:20:56.740Z,4867.34
2023-04-15T09:21:58.969Z,4944.24
2023-04-15T09:22:56.793Z,4930.49
2023-04-15T09:23:56.707Z,5042.65
2023-04-15T09:24:56.705Z,5071.50
2023-04-15T09:25:56.680Z,4962.69
2023-04-15T09:26:56.673Z,4903.23
2023-04-15T09:27:56.697Z,4930.49
2023-04-15T09:28:56.680Z,4990.62
2023-04-15T09:29:56.650Z,4985.94
2023-04-15T09:30:56.683Z,5023.61
2023-04-15T09:31:56.616Z,5135.13
2023-04-15T09:32:56.676Z,5175.10
2023-04-15T09:33:56.630Z,5125.24
2023-04-15T09:34:56.580Z,5135.13
2023-04-15T09:35:56.573Z,5125.24
2023-04-15T09:36:56.572Z,5037.88
2023-04-15T09:37:56.565Z,5014.14
2023-04-15T09:38:56.565Z,5288.27
2023-04-15T09:39:56.537Z,5428.57
2023-04-15T09:40:56.521Z,5507.25
2023-04-15T09:41:56.526Z,5594.11
2023-04-15T09:42:56.532Z,5665.60
2023-04-15T09:43:56.512Z,5570.68
2023-04-15T09:44:56.498Z,5467.63
2023-04-15T09:45:56.513Z,5368.31
2023-04-15T09:46:56.457Z,5231.07
2023-04-15T09:47:57.687Z,5160.04
2023-04-15T09:48:56.466Z,5251.73
2023-04-15T09:49:56.548Z,5150.05
2023-04-15T09:50:56.434Z,5033.11
2023-04-15T09:52:05.086Z,4814.48
2023-04-15T09:52:56.439Z,4916.82
2023-04-15T09:53:56.417Z,4867.34
2023-04-15T09:54:56.386Z,5120.31
2023-04-15T09:55:56.390Z,5175.10
2023-04-15T09:56:56.358Z,5095.79
2023-04-15T09:57:56.362Z,5373.74
2023-04-15T09:58:56.349Z,5456.41
2023-04-15T09:59:56.334Z,5467.63
2023-04-15T10:00:56.358Z,5231.07
2023-04-15T10:01:56.385Z,5150.05
2023-04-15T10:02:56.446Z,5135.13
2023-04-15T10:03:56.350Z,5028.35
2023-04-15T10:04:56.292Z,4894.20
2023-04-15T10:05:56.323Z,4792.79
2023-04-15T10:06:56.267Z,5105.57
2023-04-15T10:07:56.249Z,5439.67
2023-04-15T10:08:56.237Z,5600.00
2023-04-15T10:09:56.302Z,5751.35
2023-04-15T10:10:56.234Z,5677.69
2023-04-15T10:11:56.277Z,5576.52
2023-04-15T10:12:56.191Z,5512.95
2023-04-15T10:13:56.195Z,5617.74
2023-04-15T10:14:56.174Z,5917.69
2023-04-15T10:15:56.217Z,5911.11
2023-04-15T10:16:56.168Z,5990.99
2023-04-15T10:17:56.228Z,5984.25
2023-04-15T10:18:56.133Z,6073.06
2023-04-15T10:19:56.146Z,6045.46
2023-04-15T10:20:56.118Z,5924.28
2023-04-15T10:21:56.153Z,5997.74
2023-04-15T10:22:56.096Z,6178.86
2023-04-15T10:23:56.088Z,6247.80
2023-04-15T10:24:56.074Z,6073.06
2023-04-15T10:25:56.123Z,6186.05
2023-04-15T10:26:56.105Z,6175.28
2023-04-15T10:27:56.079Z,5911.11
2023-04-15T10:28:56.046Z,5456.41
2023-04-15T10:29:56.058Z,5155.04
2023-04-15T10:30:56.138Z,5135.13
2023-04-15T10:31:56.136Z,4976.61
2023-04-15T10:32:56.129Z,5037.88
2023-04-15T10:33:55.989Z,5185.19
2023-04-15T10:34:55.991Z,5357.50
2023-04-15T10:35:55.963Z,5547.44
2023-04-15T10:36:55.954Z,5412.00
2023-04-15T10:37:55.949Z,5495.87
2023-04-15T10:38:55.928Z,5530.15
2023-04-15T10:39:55.920Z,5623.68
2023-04-15T10:40:55.924Z,5629.63
2023-04-15T10:41:55.926Z,5689.84
2023-04-15T10:42:55.882Z,5659.57
2023-04-15T10:43:55.891Z,5839.74
2023-04-15T10:44:55.869Z,6107.92
2023-04-15T10:45:55.877Z,6073.06
2023-04-15T10:46:55.923Z,6086.96
2023-04-15T10:47:55.882Z,6052.33
2023-04-15T10:48:55.889Z,6240.47
2023-04-15T10:49:55.840Z,6425.12
2023-04-15T10:50:55.816Z,6551.72
2023-04-15T10:51:55.800Z,6456.31
2023-04-15T10:52:55.813Z,6531.61
2023-04-15T10:53:55.870Z,6499.69
2023-04-15T10:54:55.863Z,6288.42
2023-04-15T10:55:55.751Z,6024.91
2023-04-15T10:56:55.745Z,6444.58
2023-04-15T10:57:55.747Z,6918.08
2023-04-15T10:58:55.790Z,7041.69
2023-04-15T10:59:55.719Z,6704.47
2023-04-15T11:00:55.730Z,6413.50
2023-04-15T11:01:55.757Z,6204.08
2023-04-15T11:02:55.780Z,6303.32
2023-04-15T11:03:55.962Z,6211.33
2023-04-15T11:04:55.809Z,6629.28
2023-04-15T11:05:55.656Z,6511.63
2023-04-15T11:06:55.648Z,6233.16
2023-04-15T11:07:55.775Z,5970.82
2023-04-15T11:08:55.637Z,5570.68
2023-04-15T11:09:55.613Z,5336.01
2023-04-15T11:10:55.597Z,5262.12
2023-04-15T11:11:55.587Z,5210.58
2023-04-15T11:12:55.599Z,5100.67
2023-04-15T11:13:55.584Z,5095.79
2023-04-15T11:14:55.580Z,5028.35
2023-04-15T11:15:55.554Z,4674.87
2023-04-15T11:16:55.542Z,4658.49
2023-04-15T11:17:55.547Z,5090.91
2023-04-15T11:18:55.530Z,5277.78
2023-04-15T11:19:55.507Z,5478.89
2023-04-15T11:20:55.519Z,5623.68
2023-04-15T11:21:55.480Z,5535.90
2023-04-15T11:23:14.495Z,5524.40
2023-04-15T11:23:55.487Z,5467.63
2023-04-15T11:24:55.453Z,5423.04
2023-04-15T11:25:55.442Z,5478.89
2023-04-15T11:26:55.451Z,5564.85
2023-04-15T11:27:55.433Z,5611.81
2023-04-15T11:28:55.415Z,5390.07
2023-04-15T11:29:55.419Z,5180.14
2023-04-15T11:30:55.409Z,5225.93
2023-04-15T11:31:55.466Z,5231.07
2023-04-15T11:32:55.437Z,5352.11
2023-04-15T11:33:55.365Z,5298.81
2023-04-15T11:34:55.345Z,4971.96
2023-04-15T11:35:55.433Z,4930.49
2023-04-15T11:36:55.334Z,4958.06
2023-04-15T11:37:55.345Z,4867.34
2023-04-15T11:38:55.328Z,4662.58
2023-04-15T11:39:55.309Z,4622.07
2023-04-15T11:40:55.356Z,4779.87
2023-04-15T11:41:55.281Z,5086.04
2023-04-15T11:42:55.271Z,5195.31
2023-04-15T11:43:55.279Z,5170.07
2023-04-15T11:44:55.275Z,5042.65
2023-04-15T11:45:55.294Z,5004.70
2023-04-15T11:46:55.237Z,4995.31
2023-04-15T11:47:55.310Z,4858.45
2023-04-15T11:48:55.275Z,4602.08
2023-04-15T11:49:55.337Z,4307.69
2023-04-15T11:50:55.197Z,3979.06
2023-04-15T11:51:55.189Z,3497.70
2023-04-15T11:52:55.177Z,3046.96
2023-04-15T11:53:55.179Z,2779.52
2023-04-15T11:54:55.154Z,2711.52
2023-04-15T11:55:55.149Z,2733.81
2023-04-15T11:56:55.129Z,2521.33
2023-04-15T11:57:55.150Z,2449.35
2023-04-15T11:58:55.110Z,2462.96
2023-04-15T11:59:55.160Z,2293.10
2023-04-15T12:00:55.103Z,2216.67
2023-04-15T12:01:55.199Z,2201.99
2023-04-15T12:02:55.207Z,2248.52
2023-04-15T12:03:55.186Z,2297.06
2023-04-15T12:04:55.077Z,2211.14
2023-04-15T12:05:55.102Z,2096.14
2023-04-15T12:06:55.045Z,2024.35
2023-04-15T12:07:55.019Z,1977.69
2023-04-15T12:08:55.050Z,2044.58
2023-04-15T12:09:54.993Z,2101.11
2023-04-15T12:10:54.995Z,2071.65
2023-04-15T12:11:55.052Z,2060.42
2023-04-15T12:12:54.958Z,2019.74
2023-04-15T12:13:55.009Z,2013.63
2023-04-15T12:14:54.953Z,2062.01
2023-04-15T12:15:54.943Z,2065.22
2023-04-15T12:16:54.943Z,2036.75
2023-04-15T12:17:55.002Z,2044.58
2023-04-15T12:18:54.909Z,2081.38
2023-04-15T12:19:54.915Z,2176.76
2023-04-15T12:20:54.871Z,2083.01
2023-04-15T12:21:54.865Z,2049.31
2023-04-15T12:22:54.877Z,1920.58
2023-04-15T12:23:54.861Z,1968.91
2023-04-15T12:24:54.897Z,1944.44
2023-04-15T12:25:54.824Z,1865.36
2023-04-15T12:26:54.819Z,1824.42